Time;durP1;ratioP1;P1;durP2;ratioP2;P2;SDS_P1;SDS_P2;PMS_P1;PMS_P2;Temp;Humidity;BMP_temperature;BMP_pressure;BME280_temperature;BME280_humidity;BME280_pressure;Samples;Min_cycle;Max_cycle;Signal;HPM_P1;HPM_P2
2022/05/28 00:07:09;;;;;;;7.80;2.40;;;15.10;59.40;;;;;;20926268;28;20613;-64
2022/05/28 00:17:10;;;;;;;11.83;2.70;;;15.00;60.10;;;;;;20926768;28;20245;-62
2022/05/28 00:27:12;;;;;;;8.67;2.30;;;14.80;60.70;;;;;;21012167;28;20665;-66
2022/05/28 00:37:14;;;;;;;7.50;2.50;;;14.70;61.20;;;;;;21018164;28;20239;-60
2022/05/28 00:47:17;;;;;;;6.50;2.53;;;14.50;61.40;;;;;;21060132;28;20210;-69
2022/05/28 00:57:20;;;;;;;10.27;2.80;;;14.50;61.40;;;;;;21008750;28;20269;-75
2022/05/28 01:08:06;;;;;;;9.27;2.30;;;14.40;61.60;;;;;;21020731;28;20681;-72
2022/05/28 01:18:14;;;;;;;5.17;1.93;;;14.30;61.60;;;;;;20962458;28;20241;-71
2022/05/28 01:28:20;;;;;;;6.27;2.27;;;14.20;61.60;;;;;;21016751;28;20291;-73
2022/05/28 01:38:23;;;;;;;11.03;2.30;;;14.00;61.50;;;;;;21038962;28;20245;-74
2022/05/28 01:48:26;;;;;;;7.37;2.03;;;13.80;61.90;;;;;;21020921;28;20214;-74
2022/05/28 01:58:28;;;;;;;8.93;2.77;;;13.70;62.50;;;;;;21012890;28;20232;-76
2022/05/28 02:08:35;;;;;;;5.77;1.97;;;13.70;62.70;;;;;;21015969;28;20231;-73
2022/05/28 02:18:47;;;;;;;6.00;2.03;;;13.80;62.20;;;;;;21019229;28;20326;-72
2022/05/28 02:28:49;;;;;;;10.43;1.80;;;14.00;61.80;;;;;;21019068;28;20201;-72
2022/05/28 02:38:51;;;;;;;5.67;1.90;;;14.00;61.80;;;;;;21023365;28;20235;-70
2022/05/28 02:48:52;;;;;;;6.80;2.20;;;14.00;61.60;;;;;;21015304;28;20262;-74
2022/05/28 02:58:54;;;;;;;7.97;2.30;;;13.80;62.20;;;;;;21024710;28;20302;-75
2022/05/28 03:08:57;;;;;;;8.70;2.27;;;13.60;62.90;;;;;;21026027;28;20215;-66
2022/05/28 03:18:58;;;;;;;12.03;2.00;;;13.30;63.40;;;;;;21028789;28;20793;-63
2022/05/28 03:29:00;;;;;;;7.97;2.27;;;13.20;63.70;;;;;;21025542;28;20210;-65
2022/05/28 03:39:02;;;;;;;4.40;1.90;;;13.00;64.10;;;;;;21022956;28;20266;-67
2022/05/28 03:49:19;;;;;;;5.97;2.07;;;13.00;64.30;;;;;;21024261;28;20290;-69
2022/05/28 03:59:21;;;;;;;6.23;2.00;;;12.90;64.20;;;;;;21028048;28;20239;-68
2022/05/28 04:09:23;;;;;;;9.70;2.10;;;13.10;64.50;;;;;;21035944;28;20206;-64
2022/05/28 04:19:25;;;;;;;6.03;2.30;;;13.20;64.40;;;;;;21032799;28;20248;-73
2022/05/28 04:29:26;;;;;;;6.67;2.00;;;13.30;64.30;;;;;;21032399;28;20537;-64
2022/05/28 04:39:28;;;;;;;9.50;2.00;;;13.40;64.40;;;;;;21016265;28;20243;-73
2022/05/28 04:49:30;;;;;;;9.13;2.23;;;13.50;63.80;;;;;;21007560;28;20602;-69
2022/05/28 04:59:32;;;;;;;8.63;1.90;;;13.60;63.40;;;;;;21004493;28;20239;-64
2022/05/28 05:09:33;;;;;;;10.67;1.90;;;13.50;63.60;;;;;;21003278;28;20214;-64
2022/05/28 05:19:35;;;;;;;6.93;1.80;;;13.60;63.60;;;;;;21002345;28;20242;-67
2022/05/28 05:29:41;;;;;;;7.40;2.40;;;13.80;63.80;;;;;;21002022;28;20203;-71
2022/05/28 05:39:43;;;;;;;7.87;2.30;;;13.90;64.00;;;;;;21000496;28;20234;-73
2022/05/28 05:49:45;;;;;;;6.67;2.20;;;14.00;64.20;;;;;;20999825;28;20688;-70
2022/05/28 05:59:47;;;;;;;8.43;2.00;;;14.20;64.20;;;;;;20999970;28;20290;-62
2022/05/28 06:09:48;;;;;;;8.23;2.70;;;14.30;64.30;;;;;;20998216;28;20206;-63
2022/05/28 06:19:50;;;;;;;7.43;2.30;;;14.50;64.10;;;;;;20998162;28;20235;-62
2022/05/28 06:29:52;;;;;;;12.10;2.50;;;14.30;64.20;;;;;;21003084;28;20207;-62
2022/05/28 06:39:54;;;;;;;9.57;2.33;;;14.30;64.60;;;;;;21002342;28;20230;-63
2022/05/28 07:00:17;;;;;;;6.00;1.83;;;14.60;64.20;;;;;;21008327;28;20242;-74
2022/05/28 07:10:19;;;;;;;9.23;2.30;;;14.90;63.60;;;;;;20997016;28;20214;-64
2022/05/28 07:20:20;;;;;;;3.90;1.70;;;15.00;63.50;;;;;;20995033;28;20321;-69
2022/05/28 07:30:22;;;;;;;5.53;1.83;;;15.10;63.60;;;;;;20994421;28;20212;-71
2022/05/28 07:40:25;;;;;;;5.40;1.50;;;15.30;63.20;;;;;;21000296;28;20629;-73
2022/05/28 07:50:27;;;;;;;10.57;1.90;;;15.40;62.50;;;;;;21009145;28;20276;-69
2022/05/28 08:00:28;;;;;;;7.13;1.90;;;15.40;62.50;;;;;;21009395;28;20231;-66
2022/05/28 08:10:30;;;;;;;4.53;1.57;;;15.30;61.10;;;;;;21008169;28;20216;-63
2022/05/28 08:30:53;;;;;;;5.73;1.77;;;15.20;59.60;;;;;;21007127;28;20207;-63
2022/05/28 08:41:01;;;;;;;8.27;2.70;;;15.20;60.00;;;;;;21005917;28;20246;-63
2022/05/28 08:51:17;;;;;;;5.43;1.90;;;15.30;59.30;;;;;;21004528;28;20248;-63
2022/05/28 09:01:20;;;;;;;6.90;1.97;;;15.60;59.30;;;;;;21004625;28;20598;-63
2022/05/28 09:11:33;;;;;;;5.83;2.17;;;15.80;59.00;;;;;;21003165;28;20214;-61
2022/05/28 09:21:38;;;;;;;6.13;2.10;;;16.00;58.40;;;;;;21002135;28;20238;-63
2022/05/28 09:32:03;;;;;;;7.10;2.63;;;16.10;58.50;;;;;;21001852;28;20298;-62
2022/05/28 09:42:36;;;;;;;8.67;1.70;;;16.50;57.50;;;;;;21000670;28;20229;-61
2022/05/28 09:54:16;;;;;;;4.13;1.57;;;16.80;57.50;;;;;;21001989;28;20221;-64
2022/05/28 10:13:24;;;;;;;4.23;2.00;;;16.60;57.10;;;;;;20998346;28;20229;-67
2022/05/28 10:23:25;;;;;;;7.30;2.07;;;16.70;56.10;;;;;;20996923;28;20251;-65
2022/05/28 10:33:29;;;;;;;4.83;2.47;;;16.80;56.10;;;;;;20996781;28;20228;-70
2022/05/28 10:43:33;;;;;;;7.23;1.77;;;17.10;55.10;;;;;;20996287;28;20764;-63
2022/05/28 10:53:49;;;;;;;7.53;2.10;;;16.90;55.90;;;;;;20995569;28;20253;-63
2022/05/28 11:04:33;;;;;;;5.67;2.40;;;17.20;56.20;;;;;;20995171;28;20238;-69
2022/05/28 11:15:12;;;;;;;4.03;1.70;;;17.40;55.00;;;;;;20994210;28;20210;-63
2022/05/28 11:26:00;;;;;;;3.20;1.97;;;17.80;53.00;;;;;;20994158;28;20732;-68
2022/05/28 11:36:21;;;;;;;3.77;1.60;;;17.70;50.00;;;;;;20993548;28;20329;-74
2022/05/28 11:46:30;;;;;;;5.30;1.60;;;17.60;50.90;;;;;;21002423;28;20211;-66
2022/05/28 11:56:32;;;;;;;5.60;4.07;;;17.80;51.40;;;;;;21033059;28;20234;-72
2022/05/28 12:06:39;;;;;;;3.77;1.83;;;18.10;48.10;;;;;;20975750;28;20245;-74
2022/05/28 12:16:43;;;;;;;3.00;2.30;;;18.70;48.00;;;;;;20992413;28;20238;-73
2022/05/28 12:27:13;;;;;;;3.83;1.90;;;18.30;47.20;;;;;;20998759;28;20237;-74
2022/05/28 12:37:22;;;;;;;3.93;1.80;;;18.10;45.70;;;;;;21005900;28;20249;-67
2022/05/28 12:47:28;;;;;;;5.80;1.67;;;18.10;44.60;;;;;;20998022;28;20211;-68
2022/05/28 12:57:35;;;;;;;4.77;1.60;;;18.10;44.70;;;;;;21004491;28;20234;-65
2022/05/28 13:07:51;;;;;;;3.30;2.10;;;18.40;44.40;;;;;;21003695;28;20230;-62
2022/05/28 13:18:09;;;;;;;5.97;3.23;;;18.60;44.40;;;;;;21002887;28;20227;-64
2022/05/28 13:28:41;;;;;;;4.27;2.70;;;18.80;42.30;;;;;;21002500;28;20262;-62
2022/05/28 13:38:49;;;;;;;3.80;2.00;;;18.90;41.50;;;;;;20999984;28;20234;-63
2022/05/28 13:48:55;;;;;;;5.40;1.80;;;19.00;41.70;;;;;;21003665;28;20201;-72
2022/05/28 13:58:56;;;;;;;2.43;2.00;;;18.90;40.50;;;;;;21000456;28;20700;-72
2022/05/28 14:09:03;;;;;;;2.93;1.87;;;18.70;42.20;;;;;;20999130;28;20219;-75
2022/05/28 14:19:08;;;;;;;3.73;1.90;;;18.70;44.80;;;;;;20997727;28;20642;-77
2022/05/28 14:29:10;;;;;;;5.60;2.50;;;19.30;44.20;;;;;;20997868;28;20202;-73
2022/05/28 14:39:16;;;;;;;5.17;1.93;;;19.60;42.80;;;;;;20996689;28;20596;-73
2022/05/28 14:49:28;;;;;;;4.03;2.13;;;19.60;42.40;;;;;;20995414;28;20629;-66
2022/05/28 14:59:43;;;;;;;2.83;2.07;;;20.70;42.00;;;;;;20996457;28;20240;-73
2022/05/28 15:09:50;;;;;;;5.07;1.90;;;20.30;40.50;;;;;;20995148;28;20288;-66
2022/05/28 15:19:53;;;;;;;3.07;2.00;;;19.70;41.60;;;;;;21010498;28;20243;-69
2022/05/28 15:30:00;;;;;;;3.87;1.67;;;19.90;42.30;;;;;;20994743;28;20232;-76
2022/05/28 15:40:03;;;;;;;2.50;1.90;;;19.80;41.90;;;;;;21045086;28;20237;-64
2022/05/28 15:50:05;;;;;;;2.63;1.50;;;19.90;41.40;;;;;;21076639;28;20209;-62
2022/05/28 16:00:08;;;;;;;2.30;1.47;;;20.20;40.90;;;;;;21104081;28;20317;-76
2022/05/28 16:10:13;;;;;;;4.40;1.80;;;21.70;39.90;;;;;;21108362;28;20297;-66
2022/05/28 16:20:15;;;;;;;5.47;1.40;;;22.30;38.60;;;;;;21090465;28;20231;-74
2022/05/28 16:30:20;;;;;;;3.30;1.33;;;21.60;36.70;;;;;;21091029;28;20220;-68
2022/05/28 16:40:22;;;;;;;3.10;1.30;;;20.80;37.90;;;;;;21090156;28;20285;-76
2022/05/28 16:50:25;;;;;;;2.63;1.60;;;20.40;37.70;;;;;;21088886;28;20209;-71
2022/05/28 17:00:30;;;;;;;2.90;1.40;;;20.10;37.90;;;;;;21114894;28;20237;-72
2022/05/28 17:10:32;;;;;;;3.63;1.30;;;19.70;39.40;;;;;;21098812;28;20201;-66
2022/05/28 17:20:34;;;;;;;2.10;1.60;;;19.70;39.70;;;;;;21068524;28;20731;-71
2022/05/28 17:30:39;;;;;;;3.73;1.20;;;19.70;38.50;;;;;;21000750;28;20206;-63
2022/05/28 17:40:41;;;;;;;3.43;1.20;;;19.60;38.30;;;;;;21001818;28;20578;-72
2022/05/28 17:51:03;;;;;;;3.40;1.70;;;19.70;38.40;;;;;;21000388;28;20207;-75
2022/05/28 18:01:05;;;;;;;2.87;1.40;;;20.00;38.70;;;;;;20999870;28;20615;-66
2022/05/28 18:11:07;;;;;;;1.80;1.10;;;19.40;38.70;;;;;;20998486;28;20657;-68
2022/05/28 18:21:15;;;;;;;7.50;5.47;;;19.00;39.40;;;;;;21014785;28;20235;-61
2022/05/28 18:31:18;;;;;;;5.47;1.33;;;18.70;39.40;;;;;;21080588;28;20203;-62
2022/05/28 18:41:20;;;;;;;3.03;1.63;;;18.50;39.80;;;;;;21080238;28;20236;-62
2022/05/28 18:51:25;;;;;;;4.47;1.47;;;18.30;40.50;;;;;;21077689;28;20203;-63
2022/05/28 19:01:27;;;;;;;5.47;1.80;;;18.10;41.20;;;;;;21077551;28;20608;-63
2022/05/28 19:11:30;;;;;;;8.10;5.07;;;18.00;42.20;;;;;;21076417;28;20260;-63
2022/05/28 19:21:32;;;;;;;6.77;2.03;;;17.80;43.00;;;;;;21075982;28;20253;-61
2022/05/28 19:31:35;;;;;;;5.20;2.17;;;17.60;43.80;;;;;;21083778;28;20206;-68
2022/05/28 19:41:37;;;;;;;2.47;1.30;;;17.30;44.40;;;;;;21073833;28;20327;-64
2022/05/28 19:51:39;;;;;;;3.47;1.77;;;17.10;44.90;;;;;;21092040;28;20728;-71
2022/05/28 20:01:42;;;;;;;4.57;1.90;;;17.00;45.40;;;;;;21090740;28;20231;-71
2022/05/28 20:11:44;;;;;;;5.33;2.40;;;16.80;46.90;;;;;;21090271;28;20726;-68
2022/05/28 20:21:46;;;;;;;5.53;2.70;;;16.70;48.50;;;;;;21090110;28;20242;-68
2022/05/28 20:31:52;;;;;;;4.73;2.57;;;16.30;49.20;;;;;;21089020;28;20216;-68
2022/05/28 20:41:55;;;;;;;5.47;2.60;;;16.10;50.00;;;;;;21070928;28;20324;-78
2022/05/28 20:51:57;;;;;;;3.80;2.30;;;15.80;51.00;;;;;;21086013;28;20203;-75
2022/05/28 21:01:59;;;;;;;3.63;2.60;;;15.50;52.00;;;;;;21086694;28;20290;-77
2022/05/28 21:12:01;;;;;;;6.77;3.13;;;15.30;52.40;;;;;;21088046;28;20231;-76
2022/05/28 21:22:06;;;;;;;3.97;2.80;;;15.10;53.10;;;;;;21085514;28;20238;-69
2022/05/28 21:32:14;;;;;;;3.73;2.23;;;14.90;53.70;;;;;;21067413;28;20255;-71
2022/05/28 21:42:16;;;;;;;4.70;2.50;;;14.80;54.10;;;;;;21084687;28;20242;-68
2022/05/28 21:52:20;;;;;;;4.97;2.77;;;14.60;55.10;;;;;;21083726;28;20208;-66
2022/05/28 22:02:27;;;;;;;6.87;3.07;;;14.40;55.70;;;;;;21114972;28;20676;-63
2022/05/28 22:12:29;;;;;;;5.47;3.17;;;14.30;56.80;;;;;;21091298;28;20235;-71
2022/05/28 22:22:31;;;;;;;4.20;2.67;;;14.00;57.70;;;;;;21079801;28;20249;-62
2022/05/28 22:32:43;;;;;;;7.27;2.70;;;13.80;58.00;;;;;;21067019;27;20664;-62
2022/05/28 22:42:44;;;;;;;3.87;2.77;;;13.70;58.60;;;;;;21067150;28;20208;-62
2022/05/28 22:52:46;;;;;;;6.47;2.70;;;13.60;59.10;;;;;;21066085;28;20208;-65
2022/05/28 23:02:49;;;;;;;4.70;3.07;;;13.60;59.60;;;;;;21065228;28;20210;-63
2022/05/28 23:12:51;;;;;;;6.93;2.60;;;13.30;60.10;;;;;;21065035;28;20211;-73
2022/05/28 23:33:15;;;;;;;6.47;2.43;;;12.90;61.50;;;;;;21062865;28;20598;-66
2022/05/28 23:43:17;;;;;;;4.83;2.63;;;12.80;62.10;;;;;;21010686;28;20242;-65
2022/05/28 23:53:54;;;;;;;6.70;2.10;;;12.60;62.50;;;;;;21005486;28;20250;-65
